sensor_id;sensor_type;location;lat;lon;timestamp;pressure;altitude;pressure_sealevel;temperature;humidity
78411;BME280;67706;51.074;-1.796;2023-05-27T00:01:10;102495.84;;;11.90;65.46
78411;BME280;67706;51.074;-1.796;2023-05-27T00:03:38;102490.00;;;11.85;65.16
78411;BME280;67706;51.074;-1.796;2023-05-27T00:06:06;102491.38;;;11.89;65.21
78411;BME280;67706;51.074;-1.796;2023-05-27T00:08:33;102487.59;;;11.90;64.59
78411;BME280;67706;51.074;-1.796;2023-05-27T00:11:00;102489.81;;;11.78;64.00
78411;BME280;67706;51.074;-1.796;2023-05-27T00:13:27;102485.47;;;11.68;64.25
78411;BME280;67706;51.074;-1.796;2023-05-27T00:15:53;102488.28;;;11.58;64.47
78411;BME280;67706;51.074;-1.796;2023-05-27T00:18:20;102493.69;;;11.42;64.92
78411;BME280;67706;51.074;-1.796;2023-05-27T00:20:47;102483.59;;;11.43;64.21
78411;BME280;67706;51.074;-1.796;2023-05-27T00:23:15;102484.03;;;11.30;64.46
78411;BME280;67706;51.074;-1.796;2023-05-27T00:25:42;102475.19;;;11.18;65.00
78411;BME280;67706;51.074;-1.796;2023-05-27T00:28:09;102480.41;;;11.04;65.69
78411;BME280;67706;51.074;-1.796;2023-05-27T00:30:36;102469.81;;;11.09;65.57
78411;BME280;67706;51.074;-1.796;2023-05-27T00:33:03;102470.63;;;11.01;65.69
78411;BME280;67706;51.074;-1.796;2023-05-27T00:35:29;102460.56;;;11.10;65.44
78411;BME280;67706;51.074;-1.796;2023-05-27T00:37:56;102466.66;;;11.04;65.49
78411;BME280;67706;51.074;-1.796;2023-05-27T00:40:26;102463.75;;;10.97;65.93
78411;BME280;67706;51.074;-1.796;2023-05-27T00:42:54;102466.91;;;10.85;66.47
78411;BME280;67706;51.074;-1.796;2023-05-27T00:45:20;102461.34;;;11.02;65.63
78411;BME280;67706;51.074;-1.796;2023-05-27T00:47:47;102449.91;;;10.89;65.82
78411;BME280;67706;51.074;-1.796;2023-05-27T00:50:16;102454.81;;;10.78;66.23
78411;BME280;67706;51.074;-1.796;2023-05-27T00:52:43;102451.16;;;10.69;66.25
78411;BME280;67706;51.074;-1.796;2023-05-27T00:55:09;102448.28;;;10.53;66.92
78411;BME280;67706;51.074;-1.796;2023-05-27T00:57:38;102453.59;;;10.55;66.35
78411;BME280;67706;51.074;-1.796;2023-05-27T01:00:06;102443.28;;;10.49;67.25
78411;BME280;67706;51.074;-1.796;2023-05-27T01:02:35;102439.59;;;10.58;66.60
78411;BME280;67706;51.074;-1.796;2023-05-27T01:05:06;102434.63;;;10.61;66.52
78411;BME280;67706;51.074;-1.796;2023-05-27T01:07:43;102439.66;;;10.48;67.11
78411;BME280;67706;51.074;-1.796;2023-05-27T01:10:19;102439.25;;;10.43;67.15
78411;BME280;67706;51.074;-1.796;2023-05-27T01:12:59;102433.88;;;10.33;67.64
78411;BME280;67706;51.074;-1.796;2023-05-27T01:15:26;102444.94;;;10.24;68.30
78411;BME280;67706;51.074;-1.796;2023-05-27T01:17:56;102435.59;;;10.34;67.50
78411;BME280;67706;51.074;-1.796;2023-05-27T01:20:23;102433.00;;;10.33;67.92
78411;BME280;67706;51.074;-1.796;2023-05-27T01:22:52;102439.44;;;10.24;68.52
78411;BME280;67706;51.074;-1.796;2023-05-27T01:25:19;102438.28;;;9.99;69.14
78411;BME280;67706;51.074;-1.796;2023-05-27T01:27:46;102433.25;;;9.77;70.43
78411;BME280;67706;51.074;-1.796;2023-05-27T01:30:13;102428.88;;;9.84;70.30
78411;BME280;67706;51.074;-1.796;2023-05-27T01:32:44;102429.03;;;9.83;70.22
78411;BME280;67706;51.074;-1.796;2023-05-27T01:35:17;102420.16;;;9.71;70.92
78411;BME280;67706;51.074;-1.796;2023-05-27T01:37:48;102421.34;;;9.69;70.93
78411;BME280;67706;51.074;-1.796;2023-05-27T01:40:18;102417.13;;;9.47;71.86
78411;BME280;67706;51.074;-1.796;2023-05-27T01:42:46;102425.94;;;9.41;72.22
78411;BME280;67706;51.074;-1.796;2023-05-27T01:45:13;102416.72;;;9.42;72.13
78411;BME280;67706;51.074;-1.796;2023-05-27T01:47:42;102415.09;;;9.49;72.17
78411;BME280;67706;51.074;-1.796;2023-05-27T01:50:09;102415.16;;;9.39;72.46
78411;BME280;67706;51.074;-1.796;2023-05-27T01:52:36;102406.94;;;9.39;72.67
78411;BME280;67706;51.074;-1.796;2023-05-27T01:55:04;102404.44;;;9.19;73.41
78411;BME280;67706;51.074;-1.796;2023-05-27T01:57:32;102404.59;;;9.17;73.48
78411;BME280;67706;51.074;-1.796;2023-05-27T01:59:59;102401.97;;;9.25;73.31
78411;BME280;67706;51.074;-1.796;2023-05-27T02:02:26;102401.38;;;9.22;73.26
78411;BME280;67706;51.074;-1.796;2023-05-27T02:04:52;102403.13;;;9.23;73.31
78411;BME280;67706;51.074;-1.796;2023-05-27T02:07:19;102408.06;;;9.19;72.95
78411;BME280;67706;51.074;-1.796;2023-05-27T02:09:46;102397.09;;;9.19;73.42
78411;BME280;67706;51.074;-1.796;2023-05-27T02:12:13;102393.84;;;8.97;74.26
78411;BME280;67706;51.074;-1.796;2023-05-27T02:14:41;102392.53;;;9.01;74.13
78411;BME280;67706;51.074;-1.796;2023-05-27T02:17:10;102389.41;;;8.96;74.38
78411;BME280;67706;51.074;-1.796;2023-05-27T02:19:36;102401.25;;;8.87;74.36
78411;BME280;67706;51.074;-1.796;2023-05-27T02:22:04;102399.31;;;8.60;75.29
78411;BME280;67706;51.074;-1.796;2023-05-27T02:24:30;102398.72;;;8.66;75.33
78411;BME280;67706;51.074;-1.796;2023-05-27T02:26:57;102395.09;;;8.65;75.32
78411;BME280;67706;51.074;-1.796;2023-05-27T02:29:24;102396.81;;;8.76;74.94
78411;BME280;67706;51.074;-1.796;2023-05-27T02:31:52;102390.53;;;8.56;75.51
78411;BME280;67706;51.074;-1.796;2023-05-27T02:34:19;102392.53;;;8.64;75.66
78411;BME280;67706;51.074;-1.796;2023-05-27T02:36:46;102388.38;;;8.60;75.46
78411;BME280;67706;51.074;-1.796;2023-05-27T02:39:12;102385.34;;;8.53;75.33
78411;BME280;67706;51.074;-1.796;2023-05-27T02:41:39;102379.13;;;8.61;75.04
78411;BME280;67706;51.074;-1.796;2023-05-27T02:44:06;102377.47;;;8.50;75.34
78411;BME280;67706;51.074;-1.796;2023-05-27T02:46:32;102382.47;;;8.55;75.43
78411;BME280;67706;51.074;-1.796;2023-05-27T02:49:00;102380.31;;;8.49;75.49
78411;BME280;67706;51.074;-1.796;2023-05-27T02:51:28;102383.09;;;8.39;75.76
78411;BME280;67706;51.074;-1.796;2023-05-27T02:53:55;102383.25;;;8.38;75.75
78411;BME280;67706;51.074;-1.796;2023-05-27T02:56:21;102384.09;;;8.29;76.13
78411;BME280;67706;51.074;-1.796;2023-05-27T02:58:51;102384.25;;;8.27;76.58
78411;BME280;67706;51.074;-1.796;2023-05-27T03:01:17;102390.25;;;8.21;76.65
78411;BME280;67706;51.074;-1.796;2023-05-27T03:03:44;102379.19;;;8.32;75.84
78411;BME280;67706;51.074;-1.796;2023-05-27T03:06:13;102383.81;;;8.13;76.84
78411;BME280;67706;51.074;-1.796;2023-05-27T03:08:39;102386.66;;;8.21;76.67
78411;BME280;67706;51.074;-1.796;2023-05-27T03:11:06;102380.91;;;8.24;76.36
78411;BME280;67706;51.074;-1.796;2023-05-27T03:13:33;102377.75;;;8.28;75.89
78411;BME280;67706;51.074;-1.796;2023-05-27T03:16:00;102376.72;;;8.20;76.30
78411;BME280;67706;51.074;-1.796;2023-05-27T03:18:27;102384.94;;;8.10;76.96
78411;BME280;67706;51.074;-1.796;2023-05-27T03:20:54;102379.47;;;8.20;76.31
78411;BME280;67706;51.074;-1.796;2023-05-27T03:23:22;102385.34;;;8.15;76.75
78411;BME280;67706;51.074;-1.796;2023-05-27T03:25:49;102385.25;;;8.17;76.55
78411;BME280;67706;51.074;-1.796;2023-05-27T03:28:15;102381.78;;;8.15;76.81
78411;BME280;67706;51.074;-1.796;2023-05-27T03:30:42;102382.94;;;8.12;77.02
78411;BME280;67706;51.074;-1.796;2023-05-27T03:33:09;102375.44;;;8.04;77.65
78411;BME280;67706;51.074;-1.796;2023-05-27T03:35:36;102375.03;;;7.99;77.66
78411;BME280;67706;51.074;-1.796;2023-05-27T03:38:03;102376.88;;;7.99;77.47
78411;BME280;67706;51.074;-1.796;2023-05-27T03:40:31;102370.56;;;7.98;77.16
78411;BME280;67706;51.074;-1.796;2023-05-27T03:42:58;102371.69;;;7.96;77.47
78411;BME280;67706;51.074;-1.796;2023-05-27T03:45:25;102359.91;;;7.86;78.03
78411;BME280;67706;51.074;-1.796;2023-05-27T03:47:52;102364.66;;;7.84;77.91
78411;BME280;67706;51.074;-1.796;2023-05-27T03:50:18;102367.97;;;7.78;78.29
78411;BME280;67706;51.074;-1.796;2023-05-27T03:52:45;102363.22;;;7.70;78.33
78411;BME280;67706;51.074;-1.796;2023-05-27T03:55:12;102371.53;;;7.50;79.48
78411;BME280;67706;51.074;-1.796;2023-05-27T03:57:40;102367.31;;;7.46;79.49
78411;BME280;67706;51.074;-1.796;2023-05-27T04:00:08;102364.44;;;7.28;80.07
78411;BME280;67706;51.074;-1.796;2023-05-27T04:02:36;102365.41;;;7.27;80.38
78411;BME280;67706;51.074;-1.796;2023-05-27T04:05:04;102367.56;;;7.23;80.05
78411;BME280;67706;51.074;-1.796;2023-05-27T04:07:30;102361.97;;;7.25;80.11
78411;BME280;67706;51.074;-1.796;2023-05-27T04:09:57;102361.84;;;7.36;79.58
78411;BME280;67706;51.074;-1.796;2023-05-27T04:12:24;102365.56;;;7.26;79.77
78411;BME280;67706;51.074;-1.796;2023-05-27T04:14:52;102363.97;;;7.23;79.62
78411;BME280;67706;51.074;-1.796;2023-05-27T04:17:19;102358.81;;;7.20;79.86
78411;BME280;67706;51.074;-1.796;2023-05-27T04:19:46;102360.72;;;7.39;79.35
78411;BME280;67706;51.074;-1.796;2023-05-27T04:22:14;102357.53;;;7.24;79.88
78411;BME280;67706;51.074;-1.796;2023-05-27T04:24:41;102359.13;;;7.27;79.60
78411;BME280;67706;51.074;-1.796;2023-05-27T04:27:08;102355.25;;;7.39;79.46
78411;BME280;67706;51.074;-1.796;2023-05-27T04:29:35;102357.56;;;7.43;78.92
78411;BME280;67706;51.074;-1.796;2023-05-27T04:32:05;102362.00;;;7.44;78.78
78411;BME280;67706;51.074;-1.796;2023-05-27T04:34:31;102364.75;;;7.44;79.01
78411;BME280;67706;51.074;-1.796;2023-05-27T04:36:58;102362.72;;;7.37;79.21
78411;BME280;67706;51.074;-1.796;2023-05-27T04:39:26;102362.47;;;7.49;78.57
78411;BME280;67706;51.074;-1.796;2023-05-27T04:41:53;102360.59;;;7.59;78.23
78411;BME280;67706;51.074;-1.796;2023-05-27T04:44:22;102359.00;;;7.47;78.92
78411;BME280;67706;51.074;-1.796;2023-05-27T04:46:49;102366.75;;;7.42;79.01
78411;BME280;67706;51.074;-1.796;2023-05-27T04:49:17;102376.22;;;7.38;79.37
78411;BME280;67706;51.074;-1.796;2023-05-27T04:51:43;102368.63;;;7.42;78.79
78411;BME280;67706;51.074;-1.796;2023-05-27T04:54:10;102366.19;;;7.39;78.92
78411;BME280;67706;51.074;-1.796;2023-05-27T04:56:38;102372.06;;;7.34;79.00
78411;BME280;67706;51.074;-1.796;2023-05-27T04:59:04;102370.56;;;7.20;79.50
78411;BME280;67706;51.074;-1.796;2023-05-27T05:01:31;102368.75;;;7.31;79.49
78411;BME280;67706;51.074;-1.796;2023-05-27T05:04:14;102373.94;;;7.43;79.28
78411;BME280;67706;51.074;-1.796;2023-05-27T05:06:42;102378.84;;;7.59;78.61
78411;BME280;67706;51.074;-1.796;2023-05-27T05:09:09;102374.53;;;7.56;79.06
78411;BME280;67706;51.074;-1.796;2023-05-27T05:11:37;102377.72;;;7.52;79.29
78411;BME280;67706;51.074;-1.796;2023-05-27T05:14:03;102374.53;;;7.56;79.27
78411;BME280;67706;51.074;-1.796;2023-05-27T05:16:30;102380.03;;;7.66;79.01
78411;BME280;67706;51.074;-1.796;2023-05-27T05:18:57;102388.22;;;7.75;79.13
78411;BME280;67706;51.074;-1.796;2023-05-27T05:21:23;102381.19;;;7.92;78.97
78411;BME280;67706;51.074;-1.796;2023-05-27T05:23:51;102389.28;;;8.13;77.95
78411;BME280;67706;51.074;-1.796;2023-05-27T05:26:18;102377.44;;;8.22;77.54
78411;BME280;67706;51.074;-1.796;2023-05-27T05:28:45;102376.00;;;8.18;77.82
78411;BME280;67706;51.074;-1.796;2023-05-27T05:31:12;102381.75;;;8.24;77.66
78411;BME280;67706;51.074;-1.796;2023-05-27T05:33:38;102380.03;;;8.14;78.21
78411;BME280;67706;51.074;-1.796;2023-05-27T05:36:06;102376.16;;;8.16;78.91
78411;BME280;67706;51.074;-1.796;2023-05-27T05:38:32;102379.19;;;8.42;79.43
78411;BME280;67706;51.074;-1.796;2023-05-27T05:41:01;102382.91;;;8.60;80.38
78411;BME280;67706;51.074;-1.796;2023-05-27T05:43:27;102382.84;;;8.79;80.00
78411;BME280;67706;51.074;-1.796;2023-05-27T05:45:54;102385.69;;;8.87;80.34
78411;BME280;67706;51.074;-1.796;2023-05-27T05:48:21;102383.75;;;9.07;79.41
78411;BME280;67706;51.074;-1.796;2023-05-27T05:50:48;102385.03;;;9.12;79.57
78411;BME280;67706;51.074;-1.796;2023-05-27T05:53:14;102384.38;;;9.28;79.32
78411;BME280;67706;51.074;-1.796;2023-05-27T05:55:41;102390.66;;;9.38;78.74
78411;BME280;67706;51.074;-1.796;2023-05-27T05:58:09;102379.13;;;9.34;79.42
78411;BME280;67706;51.074;-1.796;2023-05-27T06:00:36;102387.84;;;9.30;79.83
78411;BME280;67706;51.074;-1.796;2023-05-27T06:03:03;102385.03;;;9.39;79.39
78411;BME280;67706;51.074;-1.796;2023-05-27T06:05:29;102377.69;;;9.57;79.10
78411;BME280;67706;51.074;-1.796;2023-05-27T06:07:56;102376.78;;;9.67;78.88
78411;BME280;67706;51.074;-1.796;2023-05-27T06:10:22;102368.03;;;9.81;78.57
78411;BME280;67706;51.074;-1.796;2023-05-27T06:12:49;102376.66;;;9.86;78.58
78411;BME280;67706;51.074;-1.796;2023-05-27T06:15:17;102379.06;;;9.89;78.55
78411;BME280;67706;51.074;-1.796;2023-05-27T06:17:44;102370.84;;;9.89;78.86
78411;BME280;67706;51.074;-1.796;2023-05-27T06:20:12;102368.28;;;10.05;78.29
78411;BME280;67706;51.074;-1.796;2023-05-27T06:22:39;102368.66;;;10.10;78.00
78411;BME280;67706;51.074;-1.796;2023-05-27T06:25:06;102369.38;;;10.12;77.84
78411;BME280;67706;51.074;-1.796;2023-05-27T06:27:33;102360.91;;;10.05;78.23
78411;BME280;67706;51.074;-1.796;2023-05-27T06:30:00;102357.84;;;10.08;78.57
78411;BME280;67706;51.074;-1.796;2023-05-27T06:32:28;102356.59;;;10.20;78.17
78411;BME280;67706;51.074;-1.796;2023-05-27T06:34:55;102351.03;;;10.30;77.97
78411;BME280;67706;51.074;-1.796;2023-05-27T06:37:21;102342.88;;;10.20;78.38
78411;BME280;67706;51.074;-1.796;2023-05-27T06:39:48;102348.72;;;10.43;77.50
78411;BME280;67706;51.074;-1.796;2023-05-27T06:42:15;102343.13;;;10.27;77.50
78411;BME280;67706;51.074;-1.796;2023-05-27T06:44:42;102347.19;;;10.41;77.45
78411;BME280;67706;51.074;-1.796;2023-05-27T06:47:08;102342.28;;;10.52;77.21
78411;BME280;67706;51.074;-1.796;2023-05-27T06:49:37;102338.94;;;10.66;76.50
78411;BME280;67706;51.074;-1.796;2023-05-27T06:52:04;102335.22;;;10.75;76.32
78411;BME280;67706;51.074;-1.796;2023-05-27T06:54:31;102337.47;;;11.05;75.30
78411;BME280;67706;51.074;-1.796;2023-05-27T06:56:57;102337.13;;;11.16;74.89
78411;BME280;67706;51.074;-1.796;2023-05-27T06:59:24;102341.47;;;10.85;76.21
78411;BME280;67706;51.074;-1.796;2023-05-27T07:01:51;102346.41;;;11.07;75.57
78411;BME280;67706;51.074;-1.796;2023-05-27T07:04:17;102335.88;;;11.37;74.59
78411;BME280;67706;51.074;-1.796;2023-05-27T07:06:45;102333.13;;;11.37;74.30
78411;BME280;67706;51.074;-1.796;2023-05-27T07:09:12;102336.03;;;11.35;73.97
78411;BME280;67706;51.074;-1.796;2023-05-27T07:11:39;102331.72;;;11.25;74.22
78411;BME280;67706;51.074;-1.796;2023-05-27T07:14:06;102327.25;;;11.32;74.30
78411;BME280;67706;51.074;-1.796;2023-05-27T07:16:34;102322.16;;;11.45;74.22
78411;BME280;67706;51.074;-1.796;2023-05-27T07:19:01;102320.41;;;11.44;73.73
78411;BME280;67706;51.074;-1.796;2023-05-27T07:21:28;102317.34;;;11.55;73.60
78411;BME280;67706;51.074;-1.796;2023-05-27T07:23:56;102312.81;;;11.87;73.01
78411;BME280;67706;51.074;-1.796;2023-05-27T07:26:24;102314.53;;;11.88;72.07
78411;BME280;67706;51.074;-1.796;2023-05-27T07:28:52;102321.91;;;11.80;72.38
78411;BME280;67706;51.074;-1.796;2023-05-27T07:31:19;102314.53;;;11.72;72.50
78411;BME280;67706;51.074;-1.796;2023-05-27T07:33:45;102306.78;;;11.84;72.69
78411;BME280;67706;51.074;-1.796;2023-05-27T07:36:12;102306.47;;;11.87;72.15
78411;BME280;67706;51.074;-1.796;2023-05-27T07:38:39;102308.66;;;11.75;72.31
78411;BME280;67706;51.074;-1.796;2023-05-27T07:41:07;102307.47;;;11.78;72.38
78411;BME280;67706;51.074;-1.796;2023-05-27T07:43:33;102305.09;;;11.83;71.79
78411;BME280;67706;51.074;-1.796;2023-05-27T07:46:00;102298.38;;;11.85;71.78
78411;BME280;67706;51.074;-1.796;2023-05-27T07:48:27;102295.13;;;11.98;71.11
78411;BME280;67706;51.074;-1.796;2023-05-27T07:50:54;102302.84;;;11.78;71.53
78411;BME280;67706;51.074;-1.796;2023-05-27T07:53:21;102291.50;;;11.89;71.60
78411;BME280;67706;51.074;-1.796;2023-05-27T07:55:48;102296.97;;;11.73;72.50
78411;BME280;67706;51.074;-1.796;2023-05-27T07:58:16;102295.78;;;11.84;71.56
78411;BME280;67706;51.074;-1.796;2023-05-27T08:00:43;102291.50;;;11.98;71.89
78411;BME280;67706;51.074;-1.796;2023-05-27T08:03:09;102292.88;;;12.02;71.55
78411;BME280;67706;51.074;-1.796;2023-05-27T08:05:36;102292.03;;;11.93;72.06
78411;BME280;67706;51.074;-1.796;2023-05-27T08:08:03;102294.25;;;11.89;72.42
78411;BME280;67706;51.074;-1.796;2023-05-27T08:10:29;102293.06;;;12.00;71.58
78411;BME280;67706;51.074;-1.796;2023-05-27T08:12:56;102294.09;;;11.99;72.00
78411;BME280;67706;51.074;-1.796;2023-05-27T08:15:24;102286.69;;;12.00;71.81
78411;BME280;67706;51.074;-1.796;2023-05-27T08:17:52;102283.25;;;11.98;71.78
78411;BME280;67706;51.074;-1.796;2023-05-27T08:20:19;102282.75;;;12.02;71.57
78411;BME280;67706;51.074;-1.796;2023-05-27T08:22:45;102274.28;;;12.20;70.53
78411;BME280;67706;51.074;-1.796;2023-05-27T08:25:12;102277.03;;;12.20;70.44
78411;BME280;67706;51.074;-1.796;2023-05-27T08:27:42;102272.03;;;12.39;70.08
78411;BME280;67706;51.074;-1.796;2023-05-27T08:30:10;102271.69;;;12.50;70.48
78411;BME280;67706;51.074;-1.796;2023-05-27T08:32:39;102258.53;;;12.68;69.44
78411;BME280;67706;51.074;-1.796;2023-05-27T08:35:06;102255.25;;;12.73;69.58
78411;BME280;67706;51.074;-1.796;2023-05-27T08:37:33;102255.84;;;12.99;69.45
78411;BME280;67706;51.074;-1.796;2023-05-27T08:40:00;102259.09;;;13.11;68.34
78411;BME280;67706;51.074;-1.796;2023-05-27T08:42:28;102252.84;;;13.17;68.74
78411;BME280;67706;51.074;-1.796;2023-05-27T08:44:55;102252.41;;;12.97;70.19
78411;BME280;67706;51.074;-1.796;2023-05-27T08:47:22;102247.69;;;13.14;69.61
78411;BME280;67706;51.074;-1.796;2023-05-27T08:49:50;102240.38;;;13.29;68.80
78411;BME280;67706;51.074;-1.796;2023-05-27T08:52:18;102236.53;;;13.15;69.45
78411;BME280;67706;51.074;-1.796;2023-05-27T08:54:46;102243.59;;;13.40;68.55
78411;BME280;67706;51.074;-1.796;2023-05-27T08:57:15;102243.09;;;13.60;67.93
78411;BME280;67706;51.074;-1.796;2023-05-27T08:59:42;102233.84;;;13.75;67.04
78411;BME280;67706;51.074;-1.796;2023-05-27T09:02:11;102241.53;;;13.42;67.40
78411;BME280;67706;51.074;-1.796;2023-05-27T09:04:39;102233.91;;;13.44;67.65
78411;BME280;67706;51.074;-1.796;2023-05-27T09:07:07;102231.59;;;13.56;67.07
78411;BME280;67706;51.074;-1.796;2023-05-27T09:09:34;102220.19;;;13.82;65.85
78411;BME280;67706;51.074;-1.796;2023-05-27T09:12:02;102222.81;;;13.75;66.00
78411;BME280;67706;51.074;-1.796;2023-05-27T09:14:29;102223.28;;;13.79;65.80
78411;BME280;67706;51.074;-1.796;2023-05-27T09:16:56;102223.19;;;13.95;65.56
78411;BME280;67706;51.074;-1.796;2023-05-27T09:19:23;102224.78;;;14.04;64.98
78411;BME280;67706;51.074;-1.796;2023-05-27T09:21:51;102221.38;;;14.02;65.44
78411;BME280;67706;51.074;-1.796;2023-05-27T09:24:22;102216.81;;;14.09;64.46
78411;BME280;67706;51.074;-1.796;2023-05-27T09:26:50;102213.38;;;14.29;62.88
78411;BME280;67706;51.074;-1.796;2023-05-27T09:29:18;102218.53;;;14.62;60.43
78411;BME280;67706;51.074;-1.796;2023-05-27T09:31:45;102212.91;;;14.55;60.51
78411;BME280;67706;51.074;-1.796;2023-05-27T09:34:12;102206.78;;;14.89;60.36
78411;BME280;67706;51.074;-1.796;2023-05-27T09:36:43;102211.16;;;14.83;59.59
78411;BME280;67706;51.074;-1.796;2023-05-27T09:39:10;102202.69;;;14.85;58.56
78411;BME280;67706;51.074;-1.796;2023-05-27T09:41:39;102202.69;;;14.85;59.52
78411;BME280;67706;51.074;-1.796;2023-05-27T09:44:06;102187.81;;;14.86;59.30
78411;BME280;67706;51.074;-1.796;2023-05-27T09:46:33;102188.88;;;14.85;60.01
78411;BME280;67706;51.074;-1.796;2023-05-27T09:49:00;102178.97;;;14.90;58.32
78411;BME280;67706;51.074;-1.796;2023-05-27T09:51:28;102187.09;;;15.13;55.58
78411;BME280;67706;51.074;-1.796;2023-05-27T09:53:55;102188.94;;;15.27;55.17
78411;BME280;67706;51.074;-1.796;2023-05-27T09:56:23;102179.75;;;15.41;53.83
78411;BME280;67706;51.074;-1.796;2023-05-27T09:58:54;102176.00;;;15.28;53.73
78411;BME280;67706;51.074;-1.796;2023-05-27T10:01:21;102179.94;;;15.40;54.68
78411;BME280;67706;51.074;-1.796;2023-05-27T10:03:50;102184.53;;;15.68;53.53
78411;BME280;67706;51.074;-1.796;2023-05-27T10:06:17;102174.06;;;15.64;53.65
78411;BME280;67706;51.074;-1.796;2023-05-27T10:08:44;102164.31;;;15.68;54.52
78411;BME280;67706;51.074;-1.796;2023-05-27T10:11:11;102159.44;;;15.70;55.24
78411;BME280;67706;51.074;-1.796;2023-05-27T10:13:38;102169.13;;;15.59;53.78
78411;BME280;67706;51.074;-1.796;2023-05-27T10:16:06;102165.41;;;15.73;55.07
78411;BME280;67706;51.074;-1.796;2023-05-27T10:18:33;102163.28;;;15.75;55.98
78411;BME280;67706;51.074;-1.796;2023-05-27T10:21:03;102152.19;;;15.97;56.53
78411;BME280;67706;51.074;-1.796;2023-05-27T10:23:31;102153.81;;;16.12;54.34
78411;BME280;67706;51.074;-1.796;2023-05-27T10:26:01;102145.19;;;16.01;54.66
78411;BME280;67706;51.074;-1.796;2023-05-27T10:28:29;102140.94;;;16.32;53.89
78411;BME280;67706;51.074;-1.796;2023-05-27T10:31:06;102142.06;;;16.44;51.50
78411;BME280;67706;51.074;-1.796;2023-05-27T10:33:35;102147.16;;;16.41;49.08
78411;BME280;67706;51.074;-1.796;2023-05-27T10:36:04;102133.16;;;16.49;48.93
78411;BME280;67706;51.074;-1.796;2023-05-27T10:38:32;102134.97;;;16.63;49.47
78411;BME280;67706;51.074;-1.796;2023-05-27T10:41:00;102132.22;;;16.63;47.72
78411;BME280;67706;51.074;-1.796;2023-05-27T10:43:28;102121.78;;;16.72;47.89
78411;BME280;67706;51.074;-1.796;2023-05-27T10:46:01;102131.72;;;17.00;48.39
78411;BME280;67706;51.074;-1.796;2023-05-27T10:48:31;102121.91;;;17.04;46.59
78411;BME280;67706;51.074;-1.796;2023-05-27T10:50:58;102116.03;;;16.73;46.36
78411;BME280;67706;51.074;-1.796;2023-05-27T10:53:25;102106.75;;;17.00;44.20
78411;BME280;67706;51.074;-1.796;2023-05-27T10:55:53;102109.31;;;17.08;43.81
78411;BME280;67706;51.074;-1.796;2023-05-27T10:58:20;102107.44;;;17.15;43.88
78411;BME280;67706;51.074;-1.796;2023-05-27T11:00:48;102101.00;;;17.08;44.30
78411;BME280;67706;51.074;-1.796;2023-05-27T11:03:16;102099.06;;;17.02;44.64
78411;BME280;67706;51.074;-1.796;2023-05-27T11:05:45;102102.75;;;17.35;44.02
78411;BME280;67706;51.074;-1.796;2023-05-27T11:08:12;102098.28;;;17.47;44.26
78411;BME280;67706;51.074;-1.796;2023-05-27T11:10:40;102098.28;;;17.47;43.38
78411;BME280;67706;51.074;-1.796;2023-05-27T11:13:07;102088.50;;;17.71;43.92
78411;BME280;67706;51.074;-1.796;2023-05-27T11:15:34;102083.38;;;17.62;42.12
78411;BME280;67706;51.074;-1.796;2023-05-27T11:18:01;102082.72;;;17.73;42.32
78411;BME280;67706;51.074;-1.796;2023-05-27T11:20:34;102074.22;;;17.68;42.66
78411;BME280;67706;51.074;-1.796;2023-05-27T11:23:03;102065.03;;;17.61;43.42
78411;BME280;67706;51.074;-1.796;2023-05-27T11:25:40;102064.81;;;17.75;42.53
78411;BME280;67706;51.074;-1.796;2023-05-27T11:28:13;102057.09;;;17.77;42.91
78411;BME280;67706;51.074;-1.796;2023-05-27T11:30:41;102049.63;;;17.84;42.67
78411;BME280;67706;51.074;-1.796;2023-05-27T11:33:07;102054.31;;;17.97;41.58
78411;BME280;67706;51.074;-1.796;2023-05-27T11:35:34;102048.53;;;18.05;42.56
78411;BME280;67706;51.074;-1.796;2023-05-27T11:38:02;102046.38;;;18.13;42.25
78411;BME280;67706;51.074;-1.796;2023-05-27T11:40:34;102040.38;;;18.10;42.51
78411;BME280;67706;51.074;-1.796;2023-05-27T11:43:01;102042.47;;;18.27;42.92
78411;BME280;67706;51.074;-1.796;2023-05-27T11:45:28;102041.97;;;18.37;40.18
78411;BME280;67706;51.074;-1.796;2023-05-27T11:47:55;102035.94;;;18.60;39.24
78411;BME280;67706;51.074;-1.796;2023-05-27T11:50:25;102038.16;;;18.38;41.70
78411;BME280;67706;51.074;-1.796;2023-05-27T11:52:55;102039.00;;;18.45;42.08
78411;BME280;67706;51.074;-1.796;2023-05-27T11:55:24;102027.03;;;18.38;39.74
78411;BME280;67706;51.074;-1.796;2023-05-27T11:57:50;102021.38;;;18.64;39.02
78411;BME280;67706;51.074;-1.796;2023-05-27T12:00:18;102008.34;;;18.58;39.97
78411;BME280;67706;51.074;-1.796;2023-05-27T12:02:44;102002.41;;;18.86;40.01
78411;BME280;67706;51.074;-1.796;2023-05-27T12:05:11;102002.38;;;18.92;40.27
78411;BME280;67706;51.074;-1.796;2023-05-27T12:07:38;102002.09;;;19.00;39.12
78411;BME280;67706;51.074;-1.796;2023-05-27T12:10:06;102007.50;;;18.95;39.81
78411;BME280;67706;51.074;-1.796;2023-05-27T12:12:35;102003.50;;;18.85;38.01
78411;BME280;67706;51.074;-1.796;2023-05-27T12:15:04;101998.03;;;19.03;36.24
78411;BME280;67706;51.074;-1.796;2023-05-27T12:17:30;101995.56;;;18.88;37.36
78411;BME280;67706;51.074;-1.796;2023-05-27T12:19:57;102001.94;;;18.95;38.08
78411;BME280;67706;51.074;-1.796;2023-05-27T12:22:24;101996.19;;;18.90;38.31
78411;BME280;67706;51.074;-1.796;2023-05-27T12:24:50;101994.72;;;18.88;38.60
78411;BME280;67706;51.074;-1.796;2023-05-27T12:27:18;101987.63;;;18.92;36.29
78411;BME280;67706;51.074;-1.796;2023-05-27T12:29:46;101984.59;;;19.25;37.40
78411;BME280;67706;51.074;-1.796;2023-05-27T12:32:13;101984.50;;;19.31;36.68
78411;BME280;67706;51.074;-1.796;2023-05-27T12:34:40;101981.53;;;19.33;36.96
78411;BME280;67706;51.074;-1.796;2023-05-27T12:37:07;101970.50;;;19.44;37.93
78411;BME280;67706;51.074;-1.796;2023-05-27T12:39:33;101971.31;;;19.51;37.69
78411;BME280;67706;51.074;-1.796;2023-05-27T12:42:00;101978.81;;;19.51;38.18
78411;BME280;67706;51.074;-1.796;2023-05-27T12:44:27;101965.69;;;19.58;38.76